createdAt,value
2023-02-28T00:01:34.258Z,3.78
2023-02-28T00:04:22.265Z,3.83
2023-02-28T00:07:10.315Z,3.88
2023-02-28T00:09:58.549Z,3.75
2023-02-28T00:12:46.699Z,3.58
2023-02-28T00:15:35.729Z,3.58
2023-02-28T00:18:25.082Z,3.80
2023-02-28T00:21:13.197Z,3.58
2023-02-28T00:24:01.231Z,4.75
2023-02-28T00:26:49.286Z,3.58
2023-02-28T00:29:37.369Z,3.63
2023-02-28T00:32:25.364Z,3.72
2023-02-28T00:35:15.265Z,3.83
2023-02-28T00:38:03.505Z,3.30
2023-02-28T00:40:51.694Z,4.32
2023-02-28T00:43:41.162Z,4.40
2023-02-28T00:46:29.203Z,4.35
2023-02-28T00:49:17.300Z,3.75
2023-02-28T00:52:06.739Z,4.25
2023-02-28T00:54:54.773Z,4.60
2023-02-28T00:57:42.830Z,4.10
2023-02-28T01:00:30.839Z,4.15
2023-02-28T01:03:20.359Z,3.85
2023-02-28T01:06:08.838Z,3.97
2023-02-28T01:08:58.265Z,4.00
2023-02-28T01:11:46.330Z,4.30
2023-02-28T01:14:34.392Z,4.15
2023-02-28T01:17:22.625Z,5.10
2023-02-28T01:20:12.001Z,4.57
2023-02-28T01:23:00.044Z,4.43
2023-02-28T01:25:49.464Z,3.40
2023-02-28T01:28:38.084Z,3.92
2023-02-28T01:31:26.251Z,4.03
2023-02-28T01:34:14.415Z,4.15
2023-02-28T01:37:02.619Z,4.97
2023-02-28T01:39:50.728Z,4.45
2023-02-28T01:42:40.234Z,4.13
2023-02-28T01:45:30.302Z,4.53
2023-02-28T01:48:18.767Z,4.18
2023-02-28T01:51:12.450Z,4.15
2023-02-28T01:54:04.374Z,3.90
2023-02-28T01:56:56.692Z,4.22
2023-02-28T01:59:50.703Z,4.90
2023-02-28T02:02:39.662Z,3.75
2023-02-28T02:05:32.056Z,4.28
2023-02-28T02:08:23.602Z,4.00
2023-02-28T02:11:15.800Z,4.03
2023-02-28T02:14:28.512Z,4.75
2023-02-28T02:17:27.338Z,4.10
2023-02-28T02:20:41.517Z,4.05
2023-02-28T02:23:59.222Z,3.60
2023-02-28T02:27:05.531Z,4.18
2023-02-28T02:30:19.108Z,3.92
2023-02-28T02:33:21.516Z,3.78
2023-02-28T02:36:14.862Z,4.07
2023-02-28T02:39:14.018Z,4.22
2023-02-28T02:42:06.349Z,4.05
2023-02-28T02:45:00.341Z,4.50
2023-02-28T02:47:48.825Z,3.58
2023-02-28T02:50:40.506Z,4.57
2023-02-28T02:53:35.255Z,3.78
2023-02-28T02:56:26.912Z,3.55
2023-02-28T02:59:22.573Z,3.92
2023-02-28T03:02:14.393Z,4.13
2023-02-28T03:05:06.377Z,4.75
2023-02-28T03:07:54.387Z,3.65
2023-02-28T03:10:47.058Z,4.50
2023-02-28T03:13:50.505Z,4.10
2023-02-28T03:16:51.772Z,3.45
2023-02-28T03:19:58.032Z,4.28
2023-02-28T03:22:54.232Z,3.75
2023-02-28T03:25:52.687Z,3.78
2023-02-28T03:28:50.538Z,3.47
2023-02-28T03:31:41.698Z,3.78
2023-02-28T03:34:33.868Z,3.78
2023-02-28T03:37:24.550Z,3.08
2023-02-28T03:40:16.509Z,3.65
2023-02-28T03:43:10.929Z,3.90
2023-02-28T03:46:03.024Z,4.30
2023-02-28T03:48:55.663Z,3.90
2023-02-28T03:51:45.346Z,3.55
2023-02-28T03:54:36.064Z,3.47
2023-02-28T03:57:29.438Z,3.78
2023-02-28T04:00:22.826Z,4.18
2023-02-28T04:03:10.954Z,3.80
2023-02-28T04:06:00.046Z,3.78
2023-02-28T04:08:48.753Z,3.70
2023-02-28T04:11:38.848Z,3.75
2023-02-28T04:14:27.353Z,3.67
2023-02-28T04:17:16.683Z,3.10
2023-02-28T04:20:10.377Z,3.40
2023-02-28T04:22:58.438Z,3.75
2023-02-28T04:25:46.421Z,3.50
2023-02-28T04:28:34.818Z,3.60
2023-02-28T04:31:22.838Z,3.53
2023-02-28T04:34:12.586Z,3.83
2023-02-28T04:37:16.980Z,3.20
2023-02-28T04:40:06.080Z,3.30
2023-02-28T04:42:54.056Z,3.60
2023-02-28T04:45:42.089Z,3.38
2023-02-28T04:48:31.611Z,3.75
2023-02-28T04:51:21.395Z,3.63
2023-02-28T04:54:09.870Z,3.00
2023-02-28T04:56:58.397Z,3.05
2023-02-28T04:59:46.426Z,3.63
2023-02-28T05:02:36.486Z,4.00
2023-02-28T05:05:24.516Z,3.85
2023-02-28T05:08:13.872Z,3.58
2023-02-28T05:11:02.529Z,3.72
2023-02-28T05:13:51.550Z,4.30
2023-02-28T05:16:40.324Z,3.85
2023-02-28T05:19:28.310Z,3.30
2023-02-28T05:22:17.686Z,3.65
2023-02-28T05:25:07.996Z,3.40
2023-02-28T05:27:55.969Z,3.47
2023-02-28T05:30:43.946Z,3.60
2023-02-28T05:33:31.949Z,3.10
2023-02-28T05:36:20.460Z,4.13
2023-02-28T05:39:13.321Z,3.50
2023-02-28T05:42:02.639Z,3.85
2023-02-28T05:44:50.709Z,4.00
2023-02-28T05:47:38.770Z,4.20
2023-02-28T05:50:26.818Z,3.50
2023-02-28T05:53:14.784Z,3.53
2023-02-28T05:56:03.081Z,4.03
2023-02-28T05:58:52.424Z,3.47
2023-02-28T06:01:42.856Z,3.95
2023-02-28T06:04:32.253Z,4.70
2023-02-28T06:07:20.381Z,4.20
2023-02-28T06:10:09.446Z,3.92
2023-02-28T06:12:57.469Z,4.45
2023-02-28T06:15:46.860Z,4.10
2023-02-28T06:18:35.162Z,3.80
2023-02-28T06:21:23.762Z,3.75
2023-02-28T06:24:12.359Z,4.00
2023-02-28T06:27:05.769Z,4.38
2023-02-28T06:29:56.487Z,3.50
2023-02-28T06:32:45.827Z,4.07
2023-02-28T06:35:33.901Z,3.53
2023-02-28T06:38:21.987Z,3.88
2023-02-28T06:41:10.603Z,4.03
2023-02-28T06:43:58.879Z,3.22
2023-02-28T06:46:47.682Z,4.30
2023-02-28T06:49:38.150Z,3.78
2023-02-28T06:52:26.155Z,3.70
2023-02-28T06:55:14.302Z,4.70
2023-02-28T06:58:02.334Z,3.85
2023-02-28T07:00:52.965Z,4.95
2023-02-28T07:03:41.096Z,3.50
2023-02-28T07:06:30.463Z,4.50
2023-02-28T07:09:20.100Z,4.88
2023-02-28T07:12:08.256Z,4.07
2023-02-28T07:14:56.910Z,7.95
2023-02-28T07:17:45.391Z,6.97
2023-02-28T07:20:33.420Z,5.97
2023-02-28T07:23:23.337Z,5.95
2023-02-28T07:26:15.538Z,5.47
2023-02-28T07:29:04.141Z,6.35
2023-02-28T07:31:54.116Z,5.35
2023-02-28T07:34:42.277Z,6.15
2023-02-28T07:37:32.481Z,5.18
2023-02-28T07:40:22.372Z,4.93
2023-02-28T07:43:10.393Z,4.20
2023-02-28T07:46:02.668Z,4.20
2023-02-28T07:48:50.677Z,3.80
2023-02-28T07:51:38.749Z,3.88
2023-02-28T07:54:26.922Z,4.28
2023-02-28T07:57:16.836Z,3.58
2023-02-28T08:00:05.949Z,3.97
2023-02-28T08:02:53.985Z,3.50
2023-02-28T08:05:42.206Z,3.55
2023-02-28T08:08:32.217Z,2.92
2023-02-28T08:11:20.896Z,3.33
2023-02-28T08:14:10.488Z,6.53
2023-02-28T08:16:58.579Z,7.55
2023-02-28T08:19:47.641Z,6.30
2023-02-28T08:22:35.656Z,4.82
2023-02-28T08:25:23.829Z,4.13
2023-02-28T08:28:11.826Z,3.92
2023-02-28T08:31:01.438Z,3.60
2023-02-28T08:33:51.998Z,3.95
2023-02-28T08:36:40.706Z,3.17
2023-02-28T08:39:28.799Z,3.45
2023-02-28T08:42:16.912Z,3.63
2023-02-28T08:45:05.680Z,2.90
2023-02-28T08:47:56.218Z,3.00
2023-02-28T08:50:48.431Z,3.67
2023-02-28T08:53:39.347Z,3.20
2023-02-28T08:56:28.526Z,3.67
2023-02-28T08:59:16.607Z,3.20
2023-02-28T09:02:04.754Z,3.40
2023-02-28T09:04:54.331Z,3.58
2023-02-28T09:07:42.661Z,3.03
2023-02-28T09:10:30.814Z,3.30
2023-02-28T09:13:19.239Z,3.70
2023-02-28T09:16:11.353Z,3.38
2023-02-28T09:18:59.721Z,3.45
2023-02-28T09:21:49.037Z,3.05
2023-02-28T09:24:38.142Z,3.20
2023-02-28T09:27:26.130Z,2.78
2023-02-28T09:30:15.006Z,2.40
2023-02-28T09:33:03.473Z,2.88
2023-02-28T09:35:52.628Z,2.70
2023-02-28T09:38:43.661Z,2.30
2023-02-28T09:41:40.835Z,2.83
2023-02-28T09:44:35.386Z,2.30
2023-02-28T09:47:31.387Z,2.40
2023-02-28T09:50:33.739Z,2.40
2023-02-28T09:53:29.212Z,2.60
2023-02-28T09:56:28.593Z,2.75
2023-02-28T09:59:38.380Z,2.20
2023-02-28T10:02:47.521Z,2.13
2023-02-28T10:05:40.572Z,2.42
2023-02-28T10:08:34.290Z,2.25
2023-02-28T10:11:25.731Z,2.10
2023-02-28T10:14:17.515Z,2.72
2023-02-28T10:17:14.219Z,2.22
2023-02-28T10:20:08.941Z,2.85
2023-02-28T10:23:08.007Z,3.28
2023-02-28T10:25:59.654Z,2.20
2023-02-28T10:28:49.018Z,1.98
2023-02-28T10:31:37.106Z,2.60
2023-02-28T10:34:26.698Z,2.42
2023-02-28T10:37:15.391Z,2.42
2023-02-28T10:40:03.680Z,2.10
2023-02-28T10:42:57.695Z,1.77
2023-02-28T10:45:59.453Z,2.55
2023-02-28T10:48:52.163Z,2.15
2023-02-28T10:51:42.119Z,1.77
2023-02-28T10:54:34.802Z,2.60
2023-02-28T10:57:26.052Z,2.00
2023-02-28T11:00:18.083Z,2.10
2023-02-28T11:03:26.477Z,2.17
2023-02-28T11:06:19.471Z,2.30
2023-02-28T11:09:31.017Z,1.95
2023-02-28T11:12:25.321Z,2.00
2023-02-28T11:15:25.645Z,1.83
2023-02-28T11:18:24.785Z,2.42
2023-02-28T11:21:21.781Z,1.92
2023-02-28T11:24:23.312Z,1.92
2023-02-28T11:27:27.396Z,1.70
2023-02-28T11:30:37.752Z,2.00
2023-02-28T11:33:30.348Z,1.85
2023-02-28T11:36:21.933Z,1.45
2023-02-28T11:39:14.222Z,1.63
2023-02-28T11:42:48.028Z,1.75
2023-02-28T11:45:49.656Z,1.83
2023-02-28T11:48:49.932Z,2.00
2023-02-28T11:51:49.650Z,1.83
2023-02-28T11:54:54.622Z,1.88
2023-02-28T11:58:06.338Z,2.03
2023-02-28T12:01:11.597Z,1.80
2023-02-28T12:04:13.919Z,1.63
2023-02-28T12:07:10.241Z,1.98
2023-02-28T12:10:06.338Z,1.40
2023-02-28T12:13:10.264Z,2.20
2023-02-28T12:16:30.862Z,1.55
2023-02-28T12:19:23.473Z,1.75
2023-02-28T12:22:29.012Z,1.50
2023-02-28T12:25:37.033Z,1.90
2023-02-28T12:28:29.174Z,1.90
2023-02-28T12:31:22.827Z,1.35
2023-02-28T12:34:16.628Z,1.45
2023-02-28T12:37:10.609Z,1.52
2023-02-28T12:40:06.497Z,1.65
2023-02-28T12:43:00.199Z,1.85
2023-02-28T12:45:52.372Z,1.90
2023-02-28T12:48:44.300Z,1.60
2023-02-28T12:51:33.356Z,1.50
2023-02-28T12:54:27.228Z,1.88
2023-02-28T12:57:20.593Z,1.42
2023-02-28T13:00:15.502Z,1.58
2023-02-28T13:03:46.957Z,1.77
2023-02-28T13:07:01.246Z,2.25
2023-02-28T13:09:56.807Z,1.88
2023-02-28T13:12:50.874Z,2.00
2023-02-28T13:15:41.579Z,1.63
2023-02-28T13:18:33.522Z,1.38
2023-02-28T13:21:25.983Z,1.75
2023-02-28T13:24:39.462Z,1.50
2023-02-28T13:27:41.970Z,1.52
2023-02-28T13:31:03.292Z,1.70
2023-02-28T13:34:15.189Z,1.67
2023-02-28T13:37:34.804Z,1.80
2023-02-28T13:40:31.972Z,1.70
2023-02-28T13:43:34.495Z,1.80
2023-02-28T13:46:24.064Z,1.70
2023-02-28T13:49:22.419Z,1.60
2023-02-28T13:52:19.022Z,1.80
2023-02-28T13:55:26.351Z,1.83
2023-02-28T13:58:34.756Z,1.65
2023-02-28T14:01:48.136Z,1.60
2023-02-28T14:04:52.665Z,1.50
2023-02-28T14:07:47.251Z,1.88
2023-02-28T14:10:43.792Z,1.88
2023-02-28T14:13:47.812Z,1.73
2023-02-28T14:16:43.296Z,2.47
2023-02-28T14:19:33.507Z,1.70
2023-02-28T14:22:42.325Z,1.63
2023-02-28T14:25:35.755Z,1.60
2023-02-28T14:28:38.416Z,2.00
2023-02-28T14:31:36.115Z,1.65
2023-02-28T14:34:39.469Z,2.17
2023-02-28T14:37:31.122Z,1.40
2023-02-28T14:40:23.333Z,1.85
2023-02-28T14:43:22.681Z,1.92
2023-02-28T14:46:15.194Z,1.90
2023-02-28T14:49:05.942Z,1.90
2023-02-28T14:52:05.669Z,1.60
2023-02-28T14:54:55.856Z,1.60
2023-02-28T14:57:53.482Z,2.20
2023-02-28T15:00:50.014Z,1.88
2023-02-28T15:03:40.192Z,2.30
2023-02-28T15:06:30.683Z,1.63
2023-02-28T15:09:20.650Z,1.65
2023-02-28T15:12:09.399Z,2.05
2023-02-28T15:14:57.763Z,1.70
2023-02-28T15:17:48.923Z,1.83
2023-02-28T15:20:40.745Z,1.92
2023-02-28T15:23:31.504Z,1.80
2023-02-28T15:26:22.939Z,1.80
2023-02-28T15:29:16.957Z,2.05
2023-02-28T15:32:07.648Z,2.20
2023-02-28T15:34:56.356Z,2.20
2023-02-28T15:37:49.682Z,2.63
2023-02-28T15:40:43.088Z,1.50
2023-02-28T15:43:32.650Z,1.70
2023-02-28T15:46:21.665Z,1.70
2023-02-28T15:49:20.907Z,2.03
2023-02-28T15:52:15.946Z,1.90
2023-02-28T15:55:11.166Z,1.88
2023-02-28T15:58:03.733Z,2.22
2023-02-28T16:01:07.106Z,1.85
2023-02-28T16:03:57.670Z,2.17
2023-02-28T16:06:46.565Z,1.65
2023-02-28T16:09:35.447Z,1.67
2023-02-28T16:12:27.729Z,1.58
2023-02-28T16:15:23.470Z,1.73
2023-02-28T16:18:13.388Z,1.73
2023-02-28T16:21:01.371Z,2.28
2023-02-28T16:23:49.426Z,1.55
2023-02-28T16:26:38.388Z,1.80
2023-02-28T16:29:29.768Z,1.90
2023-02-28T16:32:19.102Z,2.28
2023-02-28T16:35:11.769Z,2.00
2023-02-28T16:37:59.836Z,1.65
2023-02-28T16:40:47.845Z,2.30
2023-02-28T16:43:35.862Z,1.77
2023-02-28T16:46:35.168Z,2.13
2023-02-28T16:49:24.730Z,1.95
2023-02-28T16:52:13.601Z,2.50
2023-02-28T16:55:01.737Z,2.00
2023-02-28T16:57:53.678Z,2.40
2023-02-28T17:00:42.473Z,2.03
2023-02-28T17:03:33.493Z,2.08
2023-02-28T17:06:25.514Z,1.83
2023-02-28T17:09:18.655Z,2.45
2023-02-28T17:12:07.199Z,2.47
2023-02-28T17:14:55.814Z,2.50
2023-02-28T17:17:45.615Z,2.45
2023-02-28T17:20:33.652Z,2.08
2023-02-28T17:23:22.972Z,2.33
2023-02-28T17:26:15.056Z,2.03
2023-02-28T17:29:03.116Z,2.35
2023-02-28T17:31:51.138Z,2.83
2023-02-28T17:34:39.164Z,2.53
2023-02-28T17:37:27.193Z,2.72
2023-02-28T17:40:18.789Z,2.47
2023-02-28T17:43:06.841Z,2.15
2023-02-28T17:45:56.771Z,2.40
2023-02-28T17:48:44.769Z,2.47
2023-02-28T17:51:32.841Z,2.40
2023-02-28T17:54:20.920Z,2.78
2023-02-28T17:57:14.461Z,2.05
2023-02-28T18:00:06.309Z,2.50
2023-02-28T18:02:55.229Z,2.00
2023-02-28T18:05:43.309Z,2.33
2023-02-28T18:08:31.716Z,2.20
2023-02-28T18:11:20.045Z,3.47
2023-02-28T18:14:09.652Z,2.65
2023-02-28T18:16:58.250Z,3.03
2023-02-28T18:19:46.263Z,2.85
2023-02-28T18:22:36.587Z,2.75
2023-02-28T18:25:25.114Z,2.40
2023-02-28T18:28:13.162Z,2.65
2023-02-28T18:31:07.271Z,2.92
2023-02-28T18:33:55.321Z,2.50
2023-02-28T18:36:43.807Z,2.42
2023-02-28T18:39:32.299Z,2.42
2023-02-28T18:42:20.311Z,2.30
2023-02-28T18:45:09.693Z,2.55
2023-02-28T18:47:59.434Z,3.30
2023-02-28T18:50:47.990Z,2.45
2023-02-28T18:53:36.581Z,2.40
2023-02-28T18:56:26.602Z,2.28
2023-02-28T18:59:14.648Z,2.80
2023-02-28T19:02:02.692Z,2.58
2023-02-28T19:04:52.445Z,2.70
2023-02-28T19:07:40.916Z,3.00
2023-02-28T19:10:29.119Z,3.28
2023-02-28T19:13:17.596Z,2.35
2023-02-28T19:16:07.248Z,3.00
2023-02-28T19:18:56.018Z,2.78
2023-02-28T19:21:45.362Z,2.67
2023-02-28T19:24:33.520Z,3.03
2023-02-28T19:27:21.518Z,3.25
2023-02-28T19:30:10.827Z,3.25
2023-02-28T19:32:58.838Z,2.50
2023-02-28T19:35:47.257Z,2.55
2023-02-28T19:38:36.642Z,2.55
2023-02-28T19:41:24.667Z,2.75
2023-02-28T19:44:12.678Z,2.10
2023-02-28T19:47:00.729Z,3.00
2023-02-28T19:49:49.217Z,3.10
2023-02-28T19:52:37.360Z,3.47
2023-02-28T19:55:26.846Z,3.45
2023-02-28T19:58:15.037Z,3.08
2023-02-28T20:01:08.349Z,3.60
2023-02-28T20:03:56.415Z,3.70
2023-02-28T20:06:44.393Z,3.67
2023-02-28T20:09:32.501Z,3.80
2023-02-28T20:12:24.334Z,4.35
2023-02-28T20:15:13.103Z,4.60
2023-02-28T20:18:01.180Z,5.07
2023-02-28T20:20:49.185Z,5.53
2023-02-28T20:23:39.146Z,5.78
2023-02-28T20:26:27.649Z,4.28
2023-02-28T20:29:17.258Z,4.97
2023-02-28T20:32:05.396Z,4.72
2023-02-28T20:34:53.762Z,4.55
2023-02-28T20:37:41.865Z,4.60
2023-02-28T20:40:29.868Z,5.22
2023-02-28T20:43:17.952Z,4.10
2023-02-28T20:46:07.830Z,5.47
2023-02-28T20:48:56.061Z,5.30
2023-02-28T20:51:44.081Z,4.18
2023-02-28T20:54:32.104Z,5.03
2023-02-28T20:57:20.190Z,4.80
2023-02-28T21:00:15.567Z,4.63
2023-02-28T21:03:05.010Z,4.72
2023-02-28T21:05:53.058Z,5.30
2023-02-28T21:08:41.436Z,4.53
2023-02-28T21:11:31.750Z,4.32
2023-02-28T21:14:20.143Z,4.50
2023-02-28T21:17:10.368Z,5.07
2023-02-28T21:19:59.753Z,6.10
2023-02-28T21:22:47.853Z,5.30
2023-02-28T21:25:35.942Z,5.78
2023-02-28T21:28:23.965Z,6.07
2023-02-28T21:31:14.273Z,6.68
2023-02-28T21:34:04.183Z,6.57
2023-02-28T21:36:54.353Z,6.43
2023-02-28T21:39:42.443Z,5.55
2023-02-28T21:42:30.508Z,5.50
2023-02-28T21:45:18.642Z,6.40
2023-02-28T21:48:06.938Z,6.13
2023-02-28T21:50:58.634Z,5.28
2023-02-28T21:53:49.221Z,6.07
2023-02-28T21:56:37.309Z,5.78
2023-02-28T21:59:25.434Z,5.85
2023-02-28T22:02:13.593Z,6.07
2023-02-28T22:05:03.507Z,5.32
2023-02-28T22:07:51.578Z,6.65
2023-02-28T22:10:41.024Z,5.40
2023-02-28T22:13:29.149Z,6.47
2023-02-28T22:16:20.344Z,5.35
2023-02-28T22:19:09.401Z,6.00
2023-02-28T22:21:57.689Z,5.95
2023-02-28T22:24:45.790Z,6.53
2023-02-28T22:27:36.225Z,5.55
2023-02-28T22:30:24.290Z,6.28
2023-02-28T22:33:12.351Z,5.90
2023-02-28T22:36:06.674Z,6.18
2023-02-28T22:38:55.205Z,6.40
2023-02-28T22:41:43.272Z,6.25
2023-02-28T22:44:32.908Z,6.75
2023-02-28T22:47:22.278Z,6.90
2023-02-28T22:50:12.082Z,7.00
2023-02-28T22:53:00.561Z,6.60
2023-02-28T22:55:55.791Z,6.28
2023-02-28T22:58:45.686Z,6.85
2023-02-28T23:01:35.843Z,6.88
2023-02-28T23:04:25.705Z,6.18
2023-02-28T23:07:15.025Z,6.90
2023-02-28T23:10:06.458Z,6.75
2023-02-28T23:12:54.506Z,5.60
2023-02-28T23:15:42.818Z,6.90
2023-02-28T23:18:32.233Z,6.82
2023-02-28T23:21:20.267Z,6.97
2023-02-28T23:24:11.337Z,6.63
2023-02-28T23:27:01.303Z,6.70
2023-02-28T23:29:49.370Z,6.68
2023-02-28T23:32:38.864Z,7.05
2023-02-28T23:35:28.651Z,6.10
2023-02-28T23:38:16.861Z,6.90
2023-02-28T23:41:08.013Z,6.50
2023-02-28T23:43:56.236Z,7.22
2023-02-28T23:46:45.516Z,7.07
2023-02-28T23:49:33.756Z,6.63
2023-02-28T23:52:23.280Z,6.82
2023-02-28T23:55:11.974Z,6.00
2023-02-28T23:58:00.006Z,6.80
